createdAt,value
2023-04-19T00:00:59.402Z,100133.56
2023-04-19T00:03:26.464Z,100128.78
2023-04-19T00:05:54.425Z,100131.16
2023-04-19T00:08:21.548Z,100128.78
2023-04-19T00:10:48.301Z,100120.34
2023-04-19T00:13:15.781Z,100121.38
2023-04-19T00:15:42.632Z,100118.75
2023-04-19T00:18:09.600Z,100118.75
2023-04-19T00:20:36.816Z,100120.34
2023-04-19T00:23:03.856Z,100116.59
2023-04-19T00:25:32.032Z,100116.22
2023-04-19T00:27:58.869Z,100117.41
2023-04-19T00:30:27.259Z,100111.03
2023-04-19T00:32:54.166Z,100113.25
2023-04-19T00:35:21.404Z,100111.84
2023-04-19T00:37:48.996Z,100108.06
2023-04-19T00:40:16.234Z,100109.28
2023-04-19T00:42:43.308Z,100100.47
2023-04-19T00:45:12.799Z,100097.13
2023-04-19T00:47:39.803Z,100096.31
2023-04-19T00:50:07.686Z,100092.53
2023-04-19T00:52:34.869Z,100088.53
2023-04-19T00:55:03.198Z,100095.97
2023-04-19T00:57:32.353Z,100091.56
2023-04-19T01:00:00.769Z,100093.75
2023-04-19T01:02:33.279Z,100084.34
2023-04-19T01:05:00.648Z,100080.94
2023-04-19T01:07:27.809Z,100083.53
2023-04-19T01:09:54.818Z,100079.94
2023-04-19T01:12:23.188Z,100081.13
2023-04-19T01:14:51.061Z,100078.19
2023-04-19T01:17:19.562Z,100075.38
2023-04-19T01:19:46.702Z,100070.97
2023-04-19T01:22:22.951Z,100069.38
2023-04-19T01:24:50.309Z,100060.56
2023-04-19T01:27:17.675Z,100062.56
2023-04-19T01:29:44.870Z,100063.56
2023-04-19T01:32:13.909Z,100054.97
2023-04-19T01:34:42.136Z,100050.78
2023-04-19T01:37:09.239Z,100051.44
2023-04-19T01:39:36.120Z,100050.22
2023-04-19T01:42:03.177Z,100046.44
2023-04-19T01:44:30.676Z,100051.03
2023-04-19T01:46:57.635Z,100047.88
2023-04-19T01:49:24.643Z,100043.84
2023-04-19T01:51:51.614Z,100041.88
2023-04-19T01:54:18.471Z,100031.88
2023-04-19T01:56:45.338Z,100036.69
2023-04-19T01:59:12.588Z,100035.88
2023-04-19T02:01:40.011Z,100029.69
2023-04-19T02:04:08.094Z,100033.88
2023-04-19T02:06:38.068Z,100028.31
2023-04-19T02:09:05.156Z,100039.53
2023-04-19T02:11:32.128Z,100042.47
2023-04-19T02:13:59.023Z,100041.09
2023-04-19T02:16:27.997Z,100041.28
2023-04-19T02:18:55.012Z,100034.72
2023-04-19T02:21:22.046Z,100034.28
2023-04-19T02:23:48.855Z,100035.69
2023-04-19T02:26:15.687Z,100031.91
2023-04-19T02:28:43.582Z,100028.66
2023-04-19T02:31:12.727Z,100022.69
2023-04-19T02:33:39.962Z,100022.09
2023-04-19T02:36:07.207Z,100011.91
2023-04-19T02:38:34.273Z,100007.13
2023-04-19T02:41:04.397Z,100016.72
2023-04-19T02:43:32.009Z,100010.31
2023-04-19T02:45:58.968Z,100002.31
2023-04-19T02:48:26.190Z,100008.69
2023-04-19T02:50:53.695Z,100006.91
2023-04-19T02:53:21.575Z,100012.34
2023-04-19T02:55:52.077Z,100005.72
2023-04-19T02:58:20.168Z,99999.97
2023-04-19T03:01:07.111Z,99999.94
2023-04-19T03:03:34.175Z,99996.94
2023-04-19T03:06:01.342Z,99994.94
2023-04-19T03:08:29.538Z,99996.72
2023-04-19T03:10:56.523Z,99990.31
2023-04-19T03:13:23.338Z,99990.50
2023-04-19T03:15:50.802Z,99990.09
2023-04-19T03:18:21.748Z,99987.91
2023-04-19T03:20:48.577Z,99986.69
2023-04-19T03:23:16.485Z,99985.09
2023-04-19T03:25:46.983Z,99982.09
2023-04-19T03:28:23.655Z,99984.25
2023-04-19T03:31:09.063Z,99980.50
2023-04-19T03:33:36.961Z,99977.06
2023-04-19T03:36:04.284Z,99976.69
2023-04-19T03:38:31.555Z,99984.06
2023-04-19T03:40:59.286Z,99972.25
2023-04-19T03:43:29.289Z,99968.28
2023-04-19T03:45:56.186Z,99965.25
2023-04-19T03:48:22.968Z,99967.06
2023-04-19T03:50:50.248Z,99970.69
2023-04-19T03:53:19.010Z,99972.69
2023-04-19T03:55:46.032Z,99964.69
2023-04-19T03:58:13.078Z,99972.50
2023-04-19T04:01:04.028Z,99968.66
2023-04-19T04:03:31.678Z,99967.91
2023-04-19T04:05:58.705Z,99957.50
2023-04-19T04:08:25.619Z,99965.91
2023-04-19T04:10:55.743Z,99966.13
2023-04-19T04:13:25.249Z,99969.91
2023-04-19T04:16:04.227Z,99968.56
2023-04-19T04:18:34.504Z,99971.50
2023-04-19T04:21:04.610Z,99973.75
2023-04-19T04:23:37.857Z,99973.13
2023-04-19T04:26:10.148Z,99975.50
2023-04-19T04:28:53.819Z,99976.72
2023-04-19T04:31:21.213Z,99975.50
2023-04-19T04:33:48.402Z,99973.31
2023-04-19T04:36:18.737Z,99982.91
2023-04-19T04:38:45.950Z,99980.31
2023-04-19T04:41:12.908Z,99971.31
2023-04-19T04:43:39.787Z,99977.94
2023-04-19T04:46:06.837Z,99979.75
2023-04-19T04:48:38.273Z,99971.75
2023-04-19T04:51:06.173Z,99973.13
2023-04-19T04:53:34.355Z,99976.34
2023-04-19T04:56:04.035Z,99970.72
2023-04-19T04:58:31.662Z,99974.72
2023-04-19T05:01:10.045Z,99971.97
2023-04-19T05:03:40.105Z,99972.56
2023-04-19T05:06:11.696Z,99974.16
2023-04-19T05:08:38.896Z,99966.75
2023-04-19T05:11:15.240Z,99966.78
2023-04-19T05:13:43.094Z,99973.75
2023-04-19T05:16:10.243Z,99958.72
2023-04-19T05:18:39.417Z,99969.53
2023-04-19T05:21:08.324Z,99966.56
2023-04-19T05:23:36.714Z,99962.72
2023-04-19T05:26:04.015Z,99953.13
2023-04-19T05:28:31.452Z,99957.31
2023-04-19T05:31:05.312Z,99953.72
2023-04-19T05:33:39.252Z,99945.94
2023-04-19T05:36:06.664Z,99948.31
2023-04-19T05:38:34.315Z,99944.72
2023-04-19T05:41:03.268Z,99951.53
2023-04-19T05:43:32.885Z,99941.94
2023-04-19T05:46:00.808Z,99944.72
2023-04-19T05:48:28.964Z,99939.09
2023-04-19T05:51:08.108Z,99947.50
2023-04-19T05:54:01.459Z,99941.88
2023-04-19T05:56:30.602Z,99941.06
2023-04-19T05:58:57.877Z,99937.19
2023-04-19T06:01:25.052Z,99938.56
2023-04-19T06:03:53.762Z,99936.56
2023-04-19T06:06:24.882Z,99946.38
2023-04-19T06:08:54.443Z,99943.78
2023-04-19T06:11:28.872Z,99945.78
2023-04-19T06:13:58.875Z,99947.84
2023-04-19T06:16:26.987Z,99951.84
2023-04-19T06:18:57.203Z,99957.41
2023-04-19T06:21:25.431Z,99950.84
2023-04-19T06:23:52.380Z,99951.47
2023-04-19T06:26:21.830Z,99953.47
2023-04-19T06:28:49.790Z,99946.25
2023-04-19T06:31:16.797Z,99941.03
2023-04-19T06:33:43.955Z,99949.16
2023-04-19T06:36:10.986Z,99947.56
2023-04-19T06:38:38.567Z,99941.75
2023-04-19T06:41:05.802Z,99934.50
2023-04-19T06:43:32.606Z,99946.31
2023-04-19T06:46:03.195Z,99942.88
2023-04-19T06:48:30.909Z,99942.88
2023-04-19T06:50:57.785Z,99940.88
2023-04-19T06:53:24.876Z,99945.47
2023-04-19T06:55:59.128Z,99947.66
2023-04-19T06:58:25.995Z,99945.91
2023-04-19T07:00:53.302Z,99943.75
2023-04-19T07:03:20.754Z,99947.09
2023-04-19T07:05:48.061Z,99956.91
2023-04-19T07:08:14.989Z,99949.53
2023-04-19T07:10:43.841Z,99942.88
2023-04-19T07:13:13.798Z,99939.34
2023-04-19T07:15:40.759Z,99936.31
2023-04-19T07:18:07.713Z,99934.94
2023-04-19T07:20:34.809Z,99934.47
2023-04-19T07:23:01.751Z,99937.25
2023-04-19T07:25:29.573Z,99946.06
2023-04-19T07:27:57.333Z,99931.88
2023-04-19T07:30:24.848Z,99938.13
2023-04-19T07:32:53.701Z,99935.97
2023-04-19T07:35:20.925Z,99936.44
2023-04-19T07:37:47.974Z,99929.06
2023-04-19T07:40:15.351Z,99940.25
2023-04-19T07:42:44.380Z,99931.41
2023-04-19T07:45:12.104Z,99932.16
2023-04-19T07:47:39.093Z,99932.16
2023-04-19T07:50:07.794Z,99925.91
2023-04-19T07:52:34.858Z,99938.56
2023-04-19T07:55:01.881Z,99930.34
2023-04-19T07:57:33.241Z,99929.94
2023-04-19T08:00:02.342Z,99926.69
2023-04-19T08:02:34.412Z,99927.50
2023-04-19T08:05:02.534Z,99924.91
2023-04-19T08:07:35.519Z,99926.91
2023-04-19T08:10:17.108Z,99927.50
2023-04-19T08:13:03.796Z,99925.75
2023-04-19T08:18:13.266Z,99926.16
2023-04-19T08:20:47.430Z,99928.31
2023-04-19T08:23:25.973Z,99924.91
2023-04-19T08:26:01.187Z,99929.66
2023-04-19T08:28:30.124Z,99930.03
2023-04-19T08:30:58.969Z,99935.22
2023-04-19T08:33:25.748Z,99936.88
2023-04-19T08:35:52.596Z,99931.81
2023-04-19T08:38:19.571Z,99930.47
2023-04-19T08:40:53.321Z,99925.28
2023-04-19T08:43:20.836Z,99919.44
2023-04-19T08:45:50.002Z,99927.81
2023-04-19T08:48:18.340Z,99927.44
2023-04-19T08:51:04.121Z,99921.78
2023-04-19T08:53:36.013Z,99921.00
2023-04-19T08:56:15.216Z,99917.84
2023-04-19T08:59:03.938Z,99926.22
2023-04-19T09:01:37.143Z,99921.66
2023-04-19T09:04:21.552Z,99921.06
2023-04-19T09:06:55.822Z,99923.13
2023-04-19T09:11:58.521Z,99913.06
2023-04-19T09:14:27.112Z,99916.41
2023-04-19T09:16:54.263Z,99911.16
2023-04-19T09:19:24.656Z,99911.34
2023-04-19T09:21:54.530Z,99906.22
2023-04-19T09:27:12.335Z,99910.53
2023-04-19T09:29:40.800Z,99906.31
2023-04-19T09:32:08.284Z,99907.50
2023-04-19T09:34:35.270Z,99910.47
2023-04-19T09:37:21.530Z,99911.19
2023-04-19T09:40:00.417Z,99920.13
2023-04-19T09:48:00.292Z,99922.28
2023-04-19T09:52:55.627Z,99932.28
2023-04-19T09:55:27.759Z,99925.09
2023-04-19T09:57:56.158Z,99925.88
2023-04-19T10:00:23.432Z,99928.97
2023-04-19T10:02:58.449Z,99930.41
2023-04-19T10:05:26.718Z,99930.56
2023-04-19T10:07:59.620Z,99925.19
2023-04-19T10:15:49.491Z,99916.31
2023-04-19T10:18:18.563Z,99920.72
2023-04-19T10:20:54.173Z,99917.56
2023-04-19T10:23:22.628Z,99923.03
2023-04-19T10:25:55.900Z,99916.59
2023-04-19T10:28:23.107Z,99906.53
2023-04-19T10:31:01.962Z,99906.66
2023-04-19T10:33:37.719Z,99894.63
2023-04-19T10:36:08.875Z,99898.19
2023-04-19T10:38:48.239Z,99895.31
2023-04-19T10:41:19.313Z,99906.22
2023-04-19T10:43:58.542Z,99904.84
2023-04-19T10:46:38.469Z,99904.25
2023-04-19T10:49:07.885Z,99908.66
2023-04-19T10:51:36.667Z,99910.50
2023-04-19T10:54:07.618Z,99904.47
2023-04-19T10:56:34.606Z,99904.69
2023-04-19T10:59:05.377Z,99912.06
2023-04-19T11:01:40.768Z,99913.16
2023-04-19T11:04:12.444Z,99913.69
2023-04-19T11:06:55.318Z,99913.81
2023-04-19T11:09:26.843Z,99917.03
2023-04-19T11:11:57.793Z,99916.94
2023-04-19T11:14:25.390Z,99915.63
2023-04-19T11:16:52.310Z,99914.84
2023-04-19T11:19:20.456Z,99909.34
2023-04-19T11:21:48.443Z,99905.94
2023-04-19T11:24:18.614Z,99909.25
2023-04-19T11:26:46.704Z,99904.75
2023-04-19T11:29:13.838Z,99903.06
2023-04-19T11:31:43.791Z,99895.50
2023-04-19T11:34:10.796Z,99900.09
2023-04-19T11:36:48.796Z,99899.97
2023-04-19T11:39:16.823Z,99897.91
2023-04-19T11:41:43.679Z,99891.38
2023-04-19T11:44:15.489Z,99893.97
2023-04-19T11:46:43.527Z,99880.69
2023-04-19T11:49:10.633Z,99886.03
2023-04-19T11:51:42.896Z,99896.13
2023-04-19T11:54:17.240Z,99888.91
2023-04-19T11:57:09.515Z,99880.66
2023-04-19T11:59:37.345Z,99883.78
2023-04-19T12:02:12.323Z,99881.03
2023-04-19T12:04:41.064Z,99886.66
2023-04-19T12:07:10.599Z,99885.91
2023-04-19T12:09:38.660Z,99881.25
2023-04-19T12:12:08.358Z,99889.50
2023-04-19T12:14:35.518Z,99876.13
2023-04-19T12:17:14.770Z,99879.22
2023-04-19T12:19:46.862Z,99877.41
2023-04-19T12:22:16.858Z,99878.28
2023-04-19T12:24:43.948Z,99872.84
2023-04-19T12:27:11.658Z,99875.03
2023-04-19T12:29:41.213Z,99872.06
2023-04-19T12:32:08.205Z,99873.56
2023-04-19T12:34:35.068Z,99871.19
2023-04-19T12:37:04.465Z,99877.50
2023-04-19T12:39:32.605Z,99877.31
2023-04-19T12:41:59.536Z,99871.88
2023-04-19T12:44:26.733Z,99867.75
2023-04-19T12:46:57.763Z,99873.13
2023-04-19T12:49:24.904Z,99871.41
2023-04-19T12:51:51.713Z,99865.78
2023-04-19T12:54:18.491Z,99873.09
2023-04-19T12:56:45.463Z,99859.59
2023-04-19T12:59:12.282Z,99864.25
2023-04-19T13:01:39.913Z,99864.63
2023-04-19T13:04:09.163Z,99855.09
2023-04-19T13:06:36.372Z,99856.16
2023-04-19T13:09:13.644Z,99858.78
2023-04-19T13:11:41.443Z,99858.41
2023-04-19T13:14:08.288Z,99849.25
2023-04-19T13:16:35.235Z,99850.72
2023-04-19T13:19:02.327Z,99854.00
2023-04-19T13:21:29.243Z,99852.66
2023-04-19T13:23:58.307Z,99852.31
2023-04-19T13:26:28.906Z,99846.09
2023-04-19T13:28:56.621Z,99852.16
2023-04-19T13:31:23.514Z,99853.47
2023-04-19T13:33:50.628Z,99854.75
2023-04-19T13:36:17.591Z,99845.75
2023-04-19T13:38:45.789Z,99844.03
2023-04-19T13:41:12.731Z,99851.06
2023-04-19T13:43:39.786Z,99844.84
2023-04-19T13:46:06.923Z,99841.78
2023-04-19T13:48:33.938Z,99851.53
2023-04-19T13:51:00.834Z,99834.84
2023-04-19T13:53:29.322Z,99849.94
2023-04-19T13:55:57.114Z,99839.28
2023-04-19T13:58:26.890Z,99839.50
2023-04-19T14:00:54.221Z,99835.00
2023-04-19T14:03:23.291Z,99835.41
2023-04-19T14:05:50.710Z,99831.22
2023-04-19T14:08:17.604Z,99823.47
2023-04-19T14:10:44.940Z,99823.56
2023-04-19T14:13:12.108Z,99812.69
2023-04-19T14:15:40.822Z,99818.75
2023-04-19T14:18:07.849Z,99823.28
2023-04-19T14:20:35.073Z,99809.31
2023-04-19T14:23:02.570Z,99819.50
2023-04-19T14:25:30.110Z,99815.84
2023-04-19T14:27:58.155Z,99823.97
2023-04-19T14:30:50.866Z,99823.28
2023-04-19T14:33:17.794Z,99823.31
2023-04-19T14:35:44.607Z,99814.91
2023-04-19T14:38:11.728Z,99815.50
2023-04-19T14:40:38.567Z,99817.00
2023-04-19T14:43:06.996Z,99820.72
2023-04-19T14:45:33.939Z,99817.31
2023-04-19T14:48:00.941Z,99829.16
2023-04-19T14:50:27.824Z,99832.28
2023-04-19T14:52:54.771Z,99836.72
2023-04-19T14:55:22.729Z,99828.59
2023-04-19T14:57:49.655Z,99836.03
2023-04-19T15:00:17.028Z,99833.00
2023-04-19T15:02:44.570Z,99831.91
2023-04-19T15:05:15.159Z,99842.50
2023-04-19T15:07:45.080Z,99837.66
2023-04-19T15:10:13.636Z,99839.06
2023-04-19T15:12:40.534Z,99834.19
2023-04-19T15:15:10.048Z,99828.25
2023-04-19T15:17:37.479Z,99840.59
2023-04-19T15:20:05.984Z,99833.19
2023-04-19T15:22:36.528Z,99845.94
2023-04-19T15:25:03.806Z,99835.88
2023-04-19T15:27:32.418Z,99830.66
2023-04-19T15:30:00.562Z,99836.25
2023-04-19T15:32:30.220Z,99847.25
2023-04-19T15:34:57.162Z,99834.25
2023-04-19T15:37:24.070Z,99840.97
2023-04-19T15:39:51.433Z,99836.78
2023-04-19T15:42:18.304Z,99838.22
2023-04-19T15:44:45.242Z,99837.44
2023-04-19T15:47:12.084Z,99832.56
2023-04-19T15:49:40.888Z,99836.94
2023-04-19T15:52:11.045Z,99826.94
2023-04-19T15:54:38.588Z,99837.31
2023-04-19T15:57:05.850Z,99842.19
2023-04-19T15:59:33.536Z,99839.03
2023-04-19T16:02:00.647Z,99831.53
2023-04-19T16:04:28.077Z,99845.50
2023-04-19T16:06:57.845Z,99844.69
2023-04-19T16:09:29.039Z,99851.03
2023-04-19T16:11:56.332Z,99854.22
2023-04-19T16:14:23.926Z,99858.25
2023-04-19T16:16:51.052Z,99864.75
2023-04-19T16:19:27.006Z,99864.81
2023-04-19T16:21:54.912Z,99873.09
2023-04-19T16:24:21.774Z,99874.34
2023-04-19T16:26:48.988Z,99878.22
2023-04-19T16:29:16.133Z,99879.28
2023-04-19T16:31:43.337Z,99887.53
2023-04-19T16:34:10.712Z,99878.34
2023-04-19T16:36:37.622Z,99882.63
2023-04-19T16:39:04.604Z,99882.59
2023-04-19T16:41:31.599Z,99880.50
2023-04-19T16:43:58.817Z,99868.13
2023-04-19T16:46:26.140Z,99866.97
2023-04-19T16:48:53.123Z,99870.16
2023-04-19T16:51:19.930Z,99872.53
2023-04-19T16:53:50.217Z,99880.53
2023-04-19T16:56:18.860Z,99889.72
2023-04-19T16:58:46.894Z,99883.31
2023-04-19T17:01:16.945Z,99884.94
2023-04-19T17:03:45.036Z,99882.94
2023-04-19T17:06:11.977Z,99882.13
2023-04-19T17:08:38.777Z,99876.94
2023-04-19T17:11:05.757Z,99885.34
2023-04-19T17:13:32.571Z,99886.50
2023-04-19T17:15:59.471Z,99882.13
2023-04-19T17:18:26.338Z,99886.50
2023-04-19T17:20:53.536Z,99886.88
2023-04-19T17:23:21.236Z,99890.88
2023-04-19T17:25:48.003Z,99891.88
2023-04-19T17:28:14.845Z,99891.47
2023-04-19T17:30:41.802Z,99890.44
2023-04-19T17:33:08.685Z,99897.63
2023-04-19T17:35:38.024Z,99887.84
2023-04-19T17:38:04.951Z,99895.63
2023-04-19T17:40:31.848Z,99902.22
2023-04-19T17:42:58.653Z,99910.56
2023-04-19T17:45:27.049Z,99917.16
2023-04-19T17:47:56.210Z,99908.34
2023-04-19T17:50:23.469Z,99922.69
2023-04-19T17:52:50.404Z,99924.75
2023-04-19T17:55:17.224Z,99925.88
2023-04-19T17:57:46.912Z,99922.28
2023-04-19T18:00:15.232Z,99923.66
2023-04-19T18:02:42.146Z,99932.59
2023-04-19T18:05:09.375Z,99928.38
2023-04-19T18:07:42.038Z,99934.91
2023-04-19T18:10:09.475Z,99938.69
2023-04-19T18:12:36.683Z,99950.47
2023-04-19T18:15:04.113Z,99942.03
2023-04-19T18:17:32.203Z,99944.03
2023-04-19T18:19:59.331Z,99942.03
2023-04-19T18:22:26.877Z,99951.22
2023-04-19T18:24:53.921Z,99954.81
2023-04-19T18:27:21.321Z,99963.38
2023-04-19T18:29:52.473Z,99959.56
2023-04-19T18:32:21.870Z,99969.13
2023-04-19T18:34:49.074Z,99965.72
2023-04-19T18:37:16.820Z,99957.59
2023-04-19T18:39:44.362Z,99966.16
2023-04-19T18:42:11.877Z,99966.44
2023-04-19T18:44:52.948Z,99964.84
2023-04-19T18:47:21.855Z,99967.69
2023-04-19T18:50:02.670Z,99960.91
2023-04-19T18:52:34.512Z,99972.47
2023-04-19T18:55:01.669Z,99967.69
2023-04-19T18:57:34.162Z,99968.50
2023-04-19T19:00:03.648Z,99974.50
2023-04-19T19:02:34.594Z,99972.53
2023-04-19T19:05:02.497Z,99974.19
2023-04-19T19:10:03.553Z,99979.59
2023-04-19T19:12:39.723Z,99978.75
2023-04-19T19:15:08.664Z,99982.16
2023-04-19T19:17:35.711Z,99975.75
2023-04-19T19:20:02.911Z,99986.69
2023-04-19T19:22:31.219Z,99979.25
2023-04-19T19:25:00.635Z,99981.78
2023-04-19T19:27:28.283Z,99978.31
2023-04-19T19:29:55.327Z,99976.66
2023-04-19T19:32:22.408Z,99979.78
2023-04-19T19:34:56.320Z,99977.72
2023-04-19T19:37:31.129Z,99984.88
2023-04-19T19:40:02.726Z,99991.16
2023-04-19T19:42:31.252Z,99989.69
2023-04-19T19:44:58.308Z,99987.81
2023-04-19T19:47:30.943Z,99986.28
2023-04-19T19:52:32.029Z,99985.97
2023-04-19T19:54:59.615Z,99984.69
2023-04-19T20:00:00.397Z,99985.19
2023-04-19T20:02:54.770Z,99979.72
2023-04-19T20:05:23.944Z,99974.34
2023-04-19T20:10:21.032Z,99974.56
2023-04-19T20:12:47.998Z,99975.28
2023-04-19T20:15:14.968Z,99982.94
2023-04-19T20:17:42.135Z,99978.59
2023-04-19T20:20:11.220Z,99974.56
2023-04-19T20:22:38.616Z,99971.72
2023-04-19T20:25:06.131Z,99966.09
2023-04-19T20:27:33.805Z,99973.75
2023-04-19T20:30:07.410Z,99964.56
2023-04-19T20:32:36.513Z,99973.75
2023-04-19T20:35:10.188Z,99971.53
2023-04-19T20:37:39.934Z,99976.16
2023-04-19T20:40:09.723Z,99974.19
2023-04-19T20:42:38.378Z,99981.56
2023-04-19T20:45:07.105Z,99983.81
2023-04-19T20:47:34.165Z,99991.44
2023-04-19T20:50:01.188Z,99994.50
2023-04-19T20:52:30.140Z,99983.81
2023-04-19T20:54:59.859Z,99981.81
2023-04-19T20:57:27.520Z,99980.16
2023-04-19T20:59:54.463Z,99973.47
2023-04-19T21:02:21.403Z,99981.13
2023-04-19T21:04:49.341Z,99970.97
2023-04-19T21:07:16.200Z,99974.09
2023-04-19T21:09:43.079Z,99969.00
2023-04-19T21:12:09.929Z,99970.31
2023-04-19T21:14:36.782Z,99977.91
2023-04-19T21:17:04.334Z,99978.72
2023-04-19T21:19:31.542Z,99975.31
2023-04-19T21:21:59.433Z,99975.13
2023-04-19T21:24:26.376Z,99980.00
2023-04-19T21:26:53.264Z,99976.47
2023-04-19T21:29:21.076Z,99976.38
2023-04-19T21:31:48.312Z,99984.19
2023-04-19T21:34:15.102Z,99980.88
2023-04-19T21:36:41.993Z,99991.84
2023-04-19T21:39:10.280Z,99994.03
2023-04-19T21:41:38.449Z,99982.72
2023-04-19T21:44:05.491Z,99988.69
2023-04-19T21:46:35.653Z,99991.09
2023-04-19T21:49:03.643Z,99996.50
2023-04-19T21:51:31.962Z,99997.13
2023-04-19T21:53:58.865Z,99999.91
2023-04-19T21:56:25.691Z,99995.53
2023-04-19T21:58:53.721Z,99997.00
2023-04-19T22:01:20.707Z,99996.38
2023-04-19T22:03:47.948Z,100001.75
2023-04-19T22:06:17.131Z,99994.44
2023-04-19T22:08:45.593Z,99991.19
2023-04-19T22:11:12.570Z,99987.19
2023-04-19T22:13:40.268Z,99993.56
2023-04-19T22:16:08.309Z,99993.06
2023-04-19T22:18:35.884Z,99993.84
2023-04-19T22:21:02.894Z,99995.25
2023-04-19T22:23:29.726Z,99989.75
2023-04-19T22:25:56.582Z,99991.97
2023-04-19T22:28:25.816Z,99992.31
2023-04-19T22:30:52.677Z,99981.91
2023-04-19T22:33:24.405Z,99987.88
2023-04-19T22:35:51.415Z,99988.28
2023-04-19T22:38:21.296Z,99987.16
2023-04-19T22:40:48.099Z,99987.97
2023-04-19T22:43:14.914Z,99982.59
2023-04-19T22:45:48.155Z,99979.41
2023-04-19T22:48:15.492Z,99987.50
2023-04-19T22:50:42.594Z,99975.56
2023-04-19T22:53:12.676Z,99980.31
2023-04-19T22:55:43.140Z,99976.84
2023-04-19T22:58:10.229Z,99980.59
2023-04-19T23:00:37.814Z,99980.97
2023-04-19T23:03:05.156Z,99984.53
2023-04-19T23:05:32.098Z,99986.50
2023-04-19T23:07:59.379Z,99990.44
2023-04-19T23:10:26.806Z,99988.03
2023-04-19T23:12:54.976Z,99989.00
2023-04-19T23:15:23.169Z,99991.75
2023-04-19T23:17:50.828Z,99980.81
2023-04-19T23:20:17.734Z,99978.22
2023-04-19T23:22:44.609Z,99975.63
2023-04-19T23:25:11.461Z,99973.41
2023-04-19T23:27:38.380Z,99976.53
2023-04-19T23:30:07.871Z,99971.09
2023-04-19T23:32:36.029Z,99969.88
2023-04-19T23:35:03.468Z,99969.41
2023-04-19T23:37:31.112Z,99964.97
2023-04-19T23:39:58.012Z,99966.84
2023-04-19T23:42:24.830Z,99962.75
2023-04-19T23:44:54.493Z,99960.25
2023-04-19T23:47:21.998Z,99960.59
2023-04-19T23:49:49.048Z,99960.53
2023-04-19T23:52:16.065Z,99955.72
2023-04-19T23:54:43.032Z,99955.72
2023-04-19T23:57:09.924Z,99957.31
2023-04-19T23:59:36.766Z,99960.53
